Branchville, South Carolina
Current Conditions -  °F | °C
As of 7:37 AM on Wednesday 26 Nov 2014 (Local Time) from KOGB Reporting Station
Light Rain Light Rain  
Wind Chill: 45°   Ceiling: 800
Heat Index: 49°   Visibility: 8mi
Dew Point: 47°   Wind: 10mph
Humidity: 93%   Direction: 320°NW
Pressure: 29.97"   Gusts: NA
Location:  33.25°N, 80.82°W
Report Text: KOGB 261237Z AUTO 32009KT 8SM -RA BKN008 OVC013 09/08 A2997 RMK AO2 CIG 005V010 P0004 T00940083
Loading
Personal Weather Stations






























Interactive Weather Map New forecast layout! Learn more

10-Day Weather Forecast

Advertisements
Track Severe Weather on mobile